createdAt,value
2024-05-09T00:01:15.873Z,2.83
2024-05-09T00:06:18.237Z,6.85
2024-05-09T00:11:21.165Z,5.07
2024-05-09T00:16:23.813Z,3.78
2024-05-09T00:21:26.020Z,5.60
2024-05-09T00:26:28.376Z,4.25
2024-05-09T00:31:30.807Z,3.97
2024-05-09T00:36:33.200Z,3.15
2024-05-09T00:41:35.759Z,6.28
2024-05-09T00:46:39.142Z,4.18
2024-05-09T00:51:43.493Z,4.35
2024-05-09T00:56:46.519Z,4.30
2024-05-09T01:01:50.074Z,5.50
2024-05-09T01:06:52.741Z,2.92
2024-05-09T01:11:55.450Z,6.70
2024-05-09T01:16:58.068Z,4.28
2024-05-09T01:22:00.858Z,3.08
2024-05-09T01:27:03.300Z,2.85
2024-05-09T01:32:08.200Z,3.53
2024-05-09T01:37:10.923Z,4.20
2024-05-09T01:42:13.406Z,2.33
2024-05-09T01:47:15.758Z,3.80
2024-05-09T01:52:18.564Z,4.20
2024-05-09T01:57:20.916Z,8.48
2024-05-09T02:02:23.221Z,2.67
2024-05-09T02:07:26.636Z,4.68
2024-05-09T02:12:28.742Z,9.80
2024-05-09T02:17:31.229Z,3.50
2024-05-09T02:22:33.500Z,2.50
2024-05-09T02:27:35.403Z,4.72
2024-05-09T02:32:37.642Z,3.20
2024-05-09T02:37:39.716Z,6.13
2024-05-09T02:42:41.962Z,4.93
2024-05-09T02:47:44.495Z,4.75
2024-05-09T02:52:46.733Z,6.30
2024-05-09T02:57:48.904Z,4.97
2024-05-09T03:02:51.164Z,5.50
2024-05-09T03:07:53.616Z,3.70
2024-05-09T03:12:56.061Z,3.17
2024-05-09T03:18:01.611Z,3.13
2024-05-09T03:23:05.488Z,6.63
2024-05-09T03:28:08.404Z,4.15
2024-05-09T03:33:19.362Z,2.72
2024-05-09T03:38:22.960Z,2.80
2024-05-09T03:43:26.039Z,4.47
2024-05-09T03:48:28.558Z,3.45
2024-05-09T03:53:32.319Z,3.05
2024-05-09T03:58:37.986Z,2.95
2024-05-09T04:03:40.490Z,4.20
2024-05-09T04:08:43.254Z,6.10
2024-05-09T04:13:45.777Z,2.95
2024-05-09T04:18:48.602Z,4.18
2024-05-09T04:23:53.665Z,6.65
2024-05-09T04:28:56.273Z,7.95
2024-05-09T04:33:58.931Z,7.00
2024-05-09T04:39:01.901Z,4.30
2024-05-09T04:44:04.655Z,6.95
2024-05-09T04:49:07.793Z,3.72
2024-05-09T04:54:15.769Z,7.78
2024-05-09T04:59:26.928Z,4.72
2024-05-09T05:04:30.264Z,5.25
2024-05-09T05:09:33.047Z,5.13
2024-05-09T05:14:35.359Z,4.40
2024-05-09T05:19:39.244Z,6.18
2024-05-09T05:24:41.763Z,4.15
2024-05-09T05:29:44.158Z,3.40
2024-05-09T05:34:46.780Z,4.90
2024-05-09T05:40:40.966Z,3.70
2024-05-09T05:45:43.657Z,3.50
2024-05-09T05:50:46.095Z,5.00
2024-05-09T05:55:48.498Z,4.10
2024-05-09T06:00:50.950Z,6.00
2024-05-09T06:05:53.234Z,2.58
2024-05-09T06:17:46.802Z,2.35
2024-05-09T06:22:49.568Z,5.28
2024-05-09T06:27:52.385Z,5.53
2024-05-09T06:32:54.986Z,5.30
2024-05-09T06:37:58.676Z,3.55
2024-05-09T06:43:01.164Z,3.28
2024-05-09T06:48:03.924Z,3.47
2024-05-09T06:53:07.668Z,3.33
2024-05-09T06:58:10.557Z,2.50
2024-05-09T07:03:17.092Z,5.88
2024-05-09T07:08:21.065Z,4.28
2024-05-09T07:13:23.617Z,3.97
2024-05-09T07:18:25.871Z,3.00
2024-05-09T07:23:28.824Z,6.15
2024-05-09T07:28:31.080Z,3.80
2024-05-09T07:33:33.598Z,3.55
2024-05-09T07:38:36.632Z,2.80
2024-05-09T07:43:39.142Z,4.32
2024-05-09T07:53:50.919Z,3.22
2024-05-09T07:58:56.047Z,2.35
2024-05-09T08:03:59.315Z,3.80
2024-05-09T08:09:05.474Z,5.70
2024-05-09T08:14:10.962Z,8.60
2024-05-09T08:19:13.361Z,3.90
2024-05-09T08:24:15.810Z,15.80
2024-05-09T08:29:18.034Z,3.63
2024-05-09T08:34:20.524Z,2.53
2024-05-09T08:39:22.964Z,2.22
2024-05-09T08:44:27.196Z,4.22
2024-05-09T08:49:31.185Z,2.83
2024-05-09T08:54:34.050Z,3.65
2024-05-09T08:59:45.407Z,3.90
2024-05-09T09:05:03.816Z,4.97
2024-05-09T09:10:12.914Z,2.20
2024-05-09T09:15:17.622Z,2.72
2024-05-09T09:20:26.348Z,2.88
2024-05-09T09:25:39.986Z,1.80
2024-05-09T09:30:43.202Z,3.90
2024-05-09T09:35:45.909Z,4.53
2024-05-09T09:40:50.215Z,4.32
2024-05-09T09:45:55.805Z,5.13
2024-05-09T09:50:58.686Z,3.42
2024-05-09T09:56:02.367Z,2.85
2024-05-09T10:01:30.585Z,5.72
2024-05-09T10:06:43.221Z,2.85
2024-05-09T10:11:51.804Z,3.50
2024-05-09T10:17:05.515Z,2.60
2024-05-09T10:22:11.423Z,3.60
2024-05-09T10:33:53.727Z,2.60
2024-05-09T10:38:56.499Z,3.50
2024-05-09T10:43:59.051Z,3.30
2024-05-09T10:49:05.312Z,7.22
2024-05-09T10:54:09.629Z,2.33
2024-05-09T10:59:14.610Z,15.88
2024-05-09T11:04:17.506Z,2.58
2024-05-09T11:09:20.643Z,2.38
2024-05-09T11:14:23.134Z,1.95
2024-05-09T11:19:34.501Z,2.58
2024-05-09T11:24:37.205Z,2.25
2024-05-09T11:29:44.728Z,4.57
2024-05-09T11:34:47.501Z,2.28
2024-05-09T11:39:50.619Z,6.10
2024-05-09T11:44:53.137Z,4.85
2024-05-09T11:49:57.231Z,3.20
2024-05-09T11:54:59.878Z,2.53
2024-05-09T12:00:03.198Z,3.67
2024-05-09T12:05:06.998Z,2.65
2024-05-09T12:10:16.462Z,2.08
2024-05-09T12:15:21.893Z,1.88
2024-05-09T12:20:32.380Z,2.10
2024-05-09T12:25:40.008Z,2.83
2024-05-09T12:30:43.004Z,2.67
2024-05-09T12:35:47.353Z,3.42
2024-05-09T12:40:51.940Z,1.98
2024-05-09T12:45:54.404Z,1.55
2024-05-09T12:50:58.035Z,3.67
2024-05-09T12:56:02.481Z,12.27
2024-05-09T13:01:08.789Z,3.03
2024-05-09T13:06:11.917Z,2.97
2024-05-09T13:11:14.700Z,2.88
2024-05-09T13:16:17.009Z,1.60
2024-05-09T13:21:19.230Z,5.53
2024-05-09T13:26:21.654Z,2.65
2024-05-09T13:31:24.269Z,2.25
2024-05-09T13:36:26.747Z,2.33
2024-05-09T13:41:28.862Z,4.50
2024-05-09T13:46:31.183Z,1.73
2024-05-09T13:51:34.656Z,3.17
2024-05-09T13:56:38.564Z,8.60
2024-05-09T14:01:41.024Z,2.42
2024-05-09T14:06:43.882Z,1.90
2024-05-09T14:11:46.474Z,3.10
2024-05-09T14:16:49.188Z,2.10
2024-05-09T14:21:51.464Z,2.60
2024-05-09T14:26:53.686Z,4.22
2024-05-09T14:31:56.157Z,3.10
2024-05-09T14:36:59.248Z,4.80
2024-05-09T14:42:01.473Z,1.52
2024-05-09T14:47:03.950Z,1.60
2024-05-09T14:52:06.369Z,2.78
2024-05-09T14:57:09.125Z,3.10
2024-05-09T15:03:02.942Z,2.30
2024-05-09T15:08:08.134Z,1.85
2024-05-09T15:13:12.299Z,1.98
2024-05-09T15:18:16.492Z,5.45
2024-05-09T15:23:19.129Z,3.30
2024-05-09T15:28:21.969Z,2.60
2024-05-09T15:33:24.806Z,2.22
2024-05-09T15:38:27.933Z,2.35
2024-05-09T15:43:58.358Z,2.08
2024-05-09T16:09:51.415Z,1.45
2024-05-09T16:14:53.722Z,2.47
2024-05-09T16:19:57.289Z,2.78
2024-05-09T16:24:59.688Z,2.50
2024-05-09T16:30:07.192Z,2.25
2024-05-09T16:35:14.598Z,2.58
2024-05-09T16:53:52.287Z,2.28
2024-05-09T17:05:50.853Z,2.10
2024-05-09T17:10:55.802Z,2.58
2024-05-09T17:15:58.441Z,1.33
2024-05-09T17:21:01.177Z,3.15
2024-05-09T17:26:03.547Z,2.63
2024-05-09T17:31:07.780Z,2.17
2024-05-09T17:36:10.475Z,3.35
2024-05-09T17:41:12.585Z,2.30
2024-05-09T17:46:15.109Z,2.15
2024-05-09T17:51:17.661Z,2.38
2024-05-09T17:56:19.980Z,2.95
2024-05-09T18:01:24.164Z,3.60
2024-05-09T18:06:26.748Z,2.20
2024-05-09T18:11:29.180Z,2.63
2024-05-09T18:16:31.287Z,5.22
2024-05-09T18:21:33.743Z,5.72
2024-05-09T18:26:36.753Z,4.25
2024-05-09T18:31:40.383Z,1.90
2024-05-09T18:36:43.061Z,2.60
2024-05-09T18:41:45.254Z,6.25
2024-05-09T18:46:47.304Z,2.10
2024-05-09T18:51:49.408Z,5.22
2024-05-09T18:56:51.593Z,2.38
2024-05-09T19:01:53.809Z,2.67
2024-05-09T19:06:56.336Z,3.15
2024-05-09T19:12:03.331Z,2.45
2024-05-09T19:17:05.540Z,2.33
2024-05-09T19:22:08.206Z,2.60
2024-05-09T19:27:10.578Z,8.68
2024-05-09T19:32:12.693Z,37.30
2024-05-09T19:37:14.996Z,82.38
2024-05-09T19:42:18.147Z,61.17
2024-05-09T19:47:20.688Z,29.98
2024-05-09T19:52:22.917Z,18.25
2024-05-09T19:57:27.541Z,11.85
2024-05-09T20:02:29.898Z,8.32
2024-05-09T20:07:34.393Z,5.45
2024-05-09T20:12:38.023Z,6.53
2024-05-09T20:17:40.192Z,3.72
2024-05-09T20:22:45.319Z,3.58
2024-05-09T20:27:47.540Z,8.07
2024-05-09T20:32:49.742Z,7.60
2024-05-09T20:37:52.022Z,3.35
2024-05-09T20:42:54.259Z,3.22
2024-05-09T20:47:57.976Z,6.50
2024-05-09T20:53:00.359Z,3.78
2024-05-09T20:58:02.566Z,5.55
2024-05-09T21:03:05.120Z,4.30
2024-05-09T21:08:08.076Z,3.50
2024-05-09T21:13:10.319Z,4.82
2024-05-09T21:18:12.702Z,7.15
2024-05-09T21:23:14.966Z,4.57
2024-05-09T21:28:17.321Z,6.18
2024-05-09T21:33:19.618Z,5.65
2024-05-09T21:38:22.218Z,7.57
2024-05-09T21:43:26.938Z,8.02
2024-05-09T21:48:29.092Z,9.95
2024-05-09T21:53:31.928Z,6.53
2024-05-09T21:58:34.560Z,9.52
2024-05-09T22:03:37.150Z,8.07
2024-05-09T22:08:39.796Z,7.70
2024-05-09T22:13:41.864Z,13.02
2024-05-09T22:18:47.139Z,16.80
2024-05-09T22:23:49.641Z,11.57
2024-05-09T22:28:51.920Z,9.18
2024-05-09T22:33:54.333Z,9.50
2024-05-09T22:38:57.072Z,6.50
2024-05-09T22:43:59.927Z,10.57
2024-05-09T22:49:02.649Z,6.50
2024-05-09T22:54:05.875Z,8.63
2024-05-09T22:59:08.191Z,9.43
2024-05-09T23:04:10.408Z,8.25
2024-05-09T23:09:13.239Z,14.18
2024-05-09T23:14:15.483Z,5.82
2024-05-09T23:19:17.690Z,6.80
2024-05-09T23:24:19.964Z,5.50
2024-05-09T23:29:22.213Z,3.53
2024-05-09T23:34:24.553Z,6.90
2024-05-09T23:39:27.358Z,3.58
2024-05-09T23:44:29.513Z,4.53
2024-05-09T23:49:31.898Z,4.45
2024-05-09T23:54:34.340Z,5.45
2024-05-09T23:59:36.459Z,3.50
